Weather History for Clinton, MO

Change the Weather History Date:

Tuesday, July 23, 2013

  Actual Average (KSZL) Record (KSZL)
Temperature  
Mean Temperature 81 °F -  
Max Temperature 91 °F 87 °F 103 °F (2012)
Min Temperature 71 °F 68 °F 55 °F (2000)
Cooling Degree Days 16    
Growing Degree Days 31 (Base 50)    
Moisture  
Dew Point 71 °F    
Average Humidity 71    
Maximum Humidity 94    
Minimum Humidity 55    
Precipitation  
Precipitation 0.00 in - - ()
Sea Level Pressure  
Sea Level Pressure 29.87 in    
Wind  
Wind Speed 5 mph (NNE)    
Max Wind Speed 14 mph    
Max Gust Speed 16 mph    
Visibility 10 miles    
Events      
Averages and records for this station are not official NWS values.
T = Trace of Precipitation, MM = Missing Value Source: NWS Daily Summary

Daily Weather History Graph

Daily Weather History Graph

Search for Another Location

Airport:

Trip Planner

Search our weather history database for the weather conditions in past years. The results will help you decide how hot, cold, wet, or windy it might be!

Date:

Astronomy

Jul. 23, 2013 Rise Set
Actual Time 6:09 AM CDT 8:32 PM CDT
Civil Twilight 5:39 AM CDT 9:02 PM CDT
Nautical Twilight 5:02 AM CDT 9:39 PM CDT
Astronomical Twilight 4:21 AM CDT 10:20 PM CDT
Moon 9:03 PM CDT (7/23) 7:17 AM CDT (7/23)
Length of Visible Light 15h 23m
Length of Day
14h 22m
Full, 99% of the Moon is Illuminated
Jul 23
Full
Jul 29
Last Quarter
Aug 6
New
Aug 14
First Quarter
Aug 20
Full

Hourly Weather History & Observations

Time (CDT) Temp. Heat Index Dew Point Humidity Pressure Visibility Wind Dir Wind Speed Gust Speed Precip Events Conditions
12:15 AM 77.0 °F - 69.8 °F 78% 29.87 in 10.0 mi SE 3.5 mph - N/A   Clear
12:35 AM 77.0 °F - 69.8 °F 78% 29.87 in 10.0 mi Calm Calm - N/A   Clear
12:55 AM 75.2 °F - 69.8 °F 83% 29.86 in 10.0 mi SSE 4.6 mph - N/A   Clear
1:15 AM 75.2 °F - 69.8 °F 83% 29.86 in 10.0 mi Calm Calm - N/A   Clear
1:35 AM 75.2 °F - 69.8 °F 83% 29.87 in 10.0 mi Calm Calm - N/A   Clear
1:55 AM 75.2 °F - 69.8 °F 83% 29.86 in 10.0 mi Calm Calm - N/A   Clear
2:15 AM 73.4 °F - 69.8 °F 88% 29.87 in 10.0 mi Calm Calm - N/A   Clear
2:35 AM 73.4 °F - 69.8 °F 88% 29.87 in 10.0 mi Calm Calm - N/A   Mostly Cloudy
2:55 AM 75.2 °F - 69.8 °F 83% 29.87 in 10.0 mi Calm Calm - N/A   Mostly Cloudy
3:15 AM 75.2 °F - 69.8 °F 83% 29.85 in 10.0 mi Calm Calm - N/A   Partly Cloudy
3:35 AM 73.4 °F - 69.8 °F 88% 29.84 in 10.0 mi Calm Calm - N/A   Clear
3:55 AM 73.4 °F - 69.8 °F 88% 29.84 in 10.0 mi Calm Calm - N/A   Clear
4:15 AM 73.4 °F - 69.8 °F 88% 29.84 in 10.0 mi SSE 5.8 mph - N/A   Clear
4:35 AM 73.4 °F - 69.8 °F 88% 29.83 in 10.0 mi South 5.8 mph - N/A   Clear
4:55 AM 73.4 °F - 69.8 °F 88% 29.83 in 10.0 mi South 4.6 mph - N/A   Clear
5:15 AM 73.4 °F - 69.8 °F 88% 29.83 in 10.0 mi Calm Calm - N/A   Clear
5:35 AM 73.4 °F - 69.8 °F 88% 29.84 in 10.0 mi Calm Calm - N/A   Clear
5:55 AM 71.6 °F - 69.8 °F 94% 29.84 in 10.0 mi South 4.6 mph - N/A   Clear
6:15 AM 73.4 °F - 71.6 °F 94% 29.84 in 10.0 mi Calm Calm - N/A   Clear
6:35 AM 73.4 °F - 71.6 °F 94% 29.84 in 9.0 mi South 4.6 mph - N/A   Clear
6:55 AM 73.4 °F - 71.6 °F 94% 29.85 in 9.0 mi South 6.9 mph - N/A   Clear
7:15 AM 75.2 °F - 71.6 °F 89% 29.85 in 9.0 mi South 5.8 mph - N/A   Clear
7:35 AM 75.2 °F - 71.6 °F 89% 29.86 in 9.0 mi South 6.9 mph - N/A   Clear
7:55 AM 77.0 °F - 73.4 °F 89% 29.85 in 9.0 mi SSW 5.8 mph - N/A   Clear
8:15 AM 78.8 °F - 73.4 °F 83% 29.85 in 9.0 mi SSW 6.9 mph - N/A   Clear
8:35 AM 80.6 °F 85.4 °F 73.4 °F 79% 29.85 in 9.0 mi SSW 6.9 mph - N/A   Clear
8:55 AM 82.4 °F 88.2 °F 73.4 °F 74% 29.86 in 9.0 mi SW 9.2 mph - N/A   Clear
9:15 AM 82.4 °F 89.5 °F 75.2 °F 79% 29.87 in 9.0 mi West 6.9 mph - N/A   Clear
9:35 AM 84.2 °F 92.3 °F 75.2 °F 74% 29.88 in 9.0 mi WSW 6.9 mph - N/A   Clear
9:55 AM 84.2 °F 92.3 °F 75.2 °F 74% 29.88 in 9.0 mi West 4.6 mph - N/A   Clear
10:15 AM 87.8 °F 97.6 °F 75.2 °F 66% 29.90 in 9.0 mi NW 5.8 mph - N/A   Clear
10:35 AM 87.8 °F 95.6 °F 73.4 °F 62% 29.90 in 10.0 mi NW 10.4 mph - N/A   Clear
10:55 AM 87.8 °F 97.6 °F 75.2 °F 66% 29.89 in 10.0 mi NNW 5.8 mph - N/A   Partly Cloudy
11:15 AM 89.6 °F 98.2 °F 73.4 °F 59% 29.89 in 10.0 mi NW 8.1 mph - N/A   Partly Cloudy
11:35 AM 89.6 °F 98.2 °F 73.4 °F 59% 29.89 in 10.0 mi NNW 10.4 mph 16.1 mph N/A   Clear
11:55 AM 89.6 °F 98.2 °F 73.4 °F 59% 29.89 in 9.0 mi North 9.2 mph - N/A   Clear
12:15 PM 89.6 °F 98.2 °F 73.4 °F 59% 29.90 in 10.0 mi NNW 9.2 mph - N/A   Partly Cloudy
12:35 PM 89.6 °F 98.2 °F 73.4 °F 59% 29.90 in 9.0 mi NNW 5.8 mph - N/A   Partly Cloudy
12:55 PM 91.4 °F 100.1 °F 73.4 °F 55% 29.88 in 10.0 mi North 9.2 mph 16.1 mph N/A   Partly Cloudy
1:15 PM 89.6 °F 99.8 °F 75.2 °F 62% 29.88 in 8.0 mi NE 13.8 mph - N/A   Scattered Clouds
1:35 PM 89.6 °F 99.8 °F 75.2 °F 62% 29.88 in 10.0 mi North 12.7 mph - N/A   Partly Cloudy
1:55 PM 91.4 °F 100.1 °F 73.4 °F 55% 29.89 in 9.0 mi NNE 10.4 mph - N/A   Partly Cloudy
2:15 PM 89.6 °F 98.2 °F 73.4 °F 59% 29.88 in 10.0 mi NNE 5.8 mph - N/A   Partly Cloudy
2:35 PM 89.6 °F 98.2 °F 73.4 °F 59% 29.88 in 9.0 mi North 10.4 mph - N/A   Scattered Clouds
2:55 PM 91.4 °F 100.1 °F 73.4 °F 55% 29.89 in 10.0 mi NNE 5.8 mph - N/A   Scattered Clouds
3:15 PM 91.4 °F 100.1 °F 73.4 °F 55% 29.88 in 10.0 mi NNE 9.2 mph - N/A   Scattered Clouds
3:35 PM 91.4 °F 100.1 °F 73.4 °F 55% 29.86 in 10.0 mi NE 5.8 mph - N/A   Clear
3:55 PM 91.4 °F 100.1 °F 73.4 °F 55% 29.85 in 10.0 mi NE 9.2 mph - N/A   Clear
4:15 PM 91.4 °F 100.1 °F 73.4 °F 55% 29.85 in 10.0 mi NNE 11.5 mph 16.1 mph N/A   Clear
4:35 PM 91.4 °F 100.1 °F 73.4 °F 55% 29.85 in 10.0 mi North 9.2 mph - N/A   Partly Cloudy
4:55 PM 91.4 °F 100.1 °F 73.4 °F 55% 29.84 in 10.0 mi North 9.2 mph - N/A   Partly Cloudy
5:15 PM 91.4 °F 100.1 °F 73.4 °F 55% 29.84 in 10.0 mi NNE 10.4 mph - N/A   Clear
5:35 PM 89.6 °F 96.2 °F 71.6 °F 55% 29.85 in 10.0 mi North 12.7 mph - N/A   Clear
5:55 PM 89.6 °F 96.2 °F 71.6 °F 55% 29.84 in 10.0 mi North 9.2 mph - N/A   Clear
6:15 PM 89.6 °F 96.2 °F 71.6 °F 55% 29.83 in 10.0 mi NNE 9.2 mph - N/A   Clear
6:35 PM 87.8 °F 93.8 °F 71.6 °F 58% 29.83 in 10.0 mi NE 9.2 mph - N/A   Clear
6:55 PM 87.8 °F 93.8 °F 71.6 °F 58% 29.84 in 10.0 mi NE 9.2 mph - N/A   Clear
7:15 PM 87.8 °F 93.8 °F 71.6 °F 58% 29.85 in 10.0 mi NE 10.4 mph - N/A   Clear
7:35 PM 86.0 °F 91.8 °F 71.6 °F 62% 29.86 in 10.0 mi NE 6.9 mph - N/A   Clear
7:55 PM 86.0 °F 90.4 °F 69.8 °F 58% 29.86 in 10.0 mi NE 8.1 mph - N/A   Clear
8:15 PM 84.2 °F 86.6 °F 66.2 °F 55% 29.87 in 10.0 mi NNE 6.9 mph - N/A   Clear
8:35 PM 82.4 °F 84.6 °F 66.2 °F 58% 29.88 in 10.0 mi NNE 8.1 mph - N/A   Clear
8:55 PM 80.6 °F 82.7 °F 66.2 °F 61% 29.88 in 10.0 mi NNE 6.9 mph - N/A   Clear
9:15 PM 80.6 °F 83.2 °F 68.0 °F 65% 29.89 in 10.0 mi NNE 8.1 mph - N/A   Clear
9:35 PM 80.6 °F 83.2 °F 68.0 °F 65% 29.90 in 10.0 mi NNE 5.8 mph - N/A   Clear
9:55 PM 78.8 °F - 69.8 °F 74% 29.90 in 10.0 mi NNE 6.9 mph - N/A   Clear
10:15 PM 78.8 °F - 69.8 °F 74% 29.88 in 10.0 mi NE 6.9 mph - N/A   Clear
10:35 PM 78.8 °F - 69.8 °F 74% 29.90 in 10.0 mi NNE 8.1 mph - N/A   Clear
10:55 PM 78.8 °F - 68.0 °F 69% 29.90 in 10.0 mi NNE 5.8 mph - N/A   Clear
11:15 PM 78.8 °F - 68.0 °F 69% 29.91 in 10.0 mi NE 6.9 mph - N/A   Clear
11:35 PM 77.0 °F - 68.0 °F 74% 29.91 in 10.0 mi ENE 6.9 mph - N/A   Partly Cloudy
11:55 PM 77.0 °F - 68.0 °F 74% 29.91 in 10.0 mi NE 8.1 mph - N/A   Partly Cloudy